Ormstown, Canada
Current Conditions -  °F | °C
As of 6:26 AM on Friday 28 Nov 2014 (Local Time) from CYUL Reporting Station
Light Snow Light Snow  
Wind Chill: 17°   Ceiling: 2000
Heat Index: 25°   Visibility: 12mi
Dew Point: 19°   Wind: 7mph
Humidity: 80%   Direction: 240°WSW
Pressure: 30.07"   Gusts: NA
Location:  45.13°N, 74°W
Report Text: CYUL 281126Z 24006KT 12SM -SN FEW010 BKN020 OVC035 M04/M07 A3007 RMK SF1SC7SC1 SF TR SLP186
Loading
Personal Weather Stations






























Interactive Weather Map New forecast layout! Learn more

10-Day Weather Forecast

Advertisements
Track Severe Weather on mobile